createdAt,value
2019-02-22T00:01:58.785Z,46.27
2019-02-22T00:04:25.263Z,43.97
2019-02-22T00:06:51.431Z,46.43
2019-02-22T00:09:17.592Z,45.33
2019-02-22T00:11:43.737Z,44.67
2019-02-22T00:14:10.173Z,44.47
2019-02-22T00:16:36.624Z,43.80
2019-02-22T00:19:02.780Z,47.43
2019-02-22T00:21:28.928Z,47.77
2019-02-22T00:23:55.084Z,45.60
2019-02-22T00:26:21.219Z,46.93
2019-02-22T00:28:47.648Z,46.53
2019-02-22T00:31:13.801Z,47.43
2019-02-22T00:33:39.963Z,46.63
2019-02-22T00:36:06.115Z,45.67
2019-02-22T00:38:32.498Z,47.20
2019-02-22T00:40:58.660Z,46.67
2019-02-22T00:43:24.957Z,46.93
2019-02-22T00:45:51.216Z,45.13
2019-02-22T00:48:17.356Z,45.43
2019-02-22T00:50:43.519Z,44.63
2019-02-22T00:53:09.659Z,45.23
2019-02-22T00:55:35.856Z,43.53
2019-02-22T00:58:02.070Z,42.97
2019-02-22T01:00:28.227Z,44.33
2019-02-22T01:02:54.644Z,45.40
2019-02-22T01:05:20.807Z,45.23
2019-02-22T01:07:46.979Z,44.03
2019-02-22T01:10:13.127Z,45.27
2019-02-22T01:12:39.474Z,44.37
2019-02-22T01:15:05.887Z,45.07
2019-02-22T01:17:32.155Z,43.50
2019-02-22T01:19:58.302Z,45.00
2019-02-22T01:22:24.456Z,45.27
2019-02-22T01:24:50.600Z,46.03
2019-02-22T01:27:16.762Z,46.40
2019-02-22T01:29:42.900Z,47.23
2019-02-22T01:32:09.079Z,47.07
2019-02-22T01:34:35.234Z,46.80
2019-02-22T01:37:01.407Z,48.13
2019-02-22T01:39:27.881Z,48.10
2019-02-22T01:41:54.033Z,49.43
2019-02-22T01:44:21.284Z,49.07
2019-02-22T01:46:47.783Z,47.83
2019-02-22T01:49:14.027Z,49.50
2019-02-22T01:51:40.183Z,47.60
2019-02-22T01:54:06.336Z,48.50
2019-02-22T01:56:32.493Z,47.57
2019-02-22T01:58:58.647Z,49.30
2019-02-22T02:01:25.055Z,49.20
2019-02-22T02:03:51.215Z,47.87
2019-02-22T02:06:17.407Z,48.50
2019-02-22T02:08:43.567Z,46.23
2019-02-22T02:11:09.767Z,49.00
2019-02-22T02:13:36.200Z,49.10
2019-02-22T02:16:02.345Z,50.70
2019-02-22T02:18:29.519Z,51.47
2019-02-22T02:20:55.720Z,49.93
2019-02-22T02:23:21.937Z,50.13
2019-02-22T02:25:48.076Z,50.57
2019-02-22T02:28:14.223Z,49.67
2019-02-22T02:30:40.368Z,50.00
2019-02-22T02:33:06.528Z,48.77
2019-02-22T02:35:32.674Z,50.37
2019-02-22T02:37:58.847Z,50.80
2019-02-22T02:40:24.992Z,51.53
2019-02-22T02:42:51.150Z,51.27
2019-02-22T02:45:17.288Z,53.53
2019-02-22T02:47:43.462Z,52.60
2019-02-22T02:50:15.029Z,50.43
2019-02-22T02:52:41.190Z,51.17
2019-02-22T02:55:30.057Z,51.33
2019-02-22T02:57:56.212Z,52.07
2019-02-22T03:00:22.343Z,48.30
2019-02-22T03:02:48.744Z,50.40
2019-02-22T03:05:14.905Z,50.83
2019-02-22T03:07:42.263Z,49.27
2019-02-22T03:10:08.423Z,50.63
2019-02-22T03:12:34.561Z,50.60
2019-02-22T03:15:00.777Z,50.10
2019-02-22T03:17:26.959Z,50.77
2019-02-22T03:19:53.442Z,52.63
2019-02-22T03:22:19.584Z,50.17
2019-02-22T03:24:45.743Z,48.83
2019-02-22T03:27:11.883Z,51.13
2019-02-22T03:29:38.055Z,53.50
2019-02-22T03:32:04.192Z,53.93
2019-02-22T03:34:30.621Z,51.00
2019-02-22T03:36:56.752Z,51.57
2019-02-22T03:39:22.924Z,52.00
2019-02-22T03:41:49.055Z,49.97
2019-02-22T03:44:15.239Z,53.47
2019-02-22T03:46:41.400Z,52.83
2019-02-22T03:49:07.553Z,52.40
2019-02-22T03:51:33.715Z,49.97
2019-02-22T03:54:00.150Z,52.20
2019-02-22T03:56:26.286Z,51.20
2019-02-22T03:58:52.790Z,52.33
2019-02-22T04:01:19.036Z,50.50
2019-02-22T04:03:45.178Z,52.33
2019-02-22T04:06:11.583Z,51.93
2019-02-22T04:08:37.742Z,53.97
2019-02-22T04:11:03.886Z,53.37
2019-02-22T04:13:30.027Z,51.27
2019-02-22T04:15:56.172Z,50.70
2019-02-22T04:18:22.322Z,50.07
2019-02-22T04:20:48.763Z,52.90
2019-02-22T04:23:14.908Z,50.97
2019-02-22T04:25:41.083Z,47.37
2019-02-22T04:28:07.282Z,51.13
2019-02-22T04:30:33.757Z,49.97
2019-02-22T04:32:59.912Z,48.60
2019-02-22T04:35:26.302Z,50.77
2019-02-22T04:37:52.479Z,48.50
2019-02-22T04:40:18.616Z,48.23
2019-02-22T04:42:44.814Z,47.80
2019-02-22T04:45:11.188Z,48.57
2019-02-22T04:47:37.347Z,48.07
2019-02-22T04:50:04.888Z,49.93
2019-02-22T04:52:31.048Z,49.07
2019-02-22T04:54:57.439Z,47.63
2019-02-22T04:57:23.684Z,48.40
2019-02-22T04:59:49.835Z,46.93
2019-02-22T05:02:16.242Z,45.00
2019-02-22T05:04:42.386Z,49.33
2019-02-22T05:07:08.526Z,48.33
2019-02-22T05:09:35.670Z,49.87
2019-02-22T05:12:10.858Z,49.03
2019-02-22T05:14:30.968Z,52.10
2019-02-22T05:16:57.117Z,49.17
2019-02-22T05:19:23.501Z,49.27
2019-02-22T05:21:49.635Z,50.10
2019-02-22T05:24:16.019Z,50.07
2019-02-22T05:26:42.175Z,49.97
2019-02-22T05:29:08.333Z,49.53
2019-02-22T05:31:34.461Z,49.83
2019-02-22T05:34:00.610Z,48.53
2019-02-22T05:36:26.753Z,46.73
2019-02-22T05:38:52.897Z,47.53
2019-02-22T05:41:19.031Z,46.20
2019-02-22T05:43:45.417Z,47.50
2019-02-22T05:46:11.562Z,46.17
2019-02-22T05:48:38.884Z,46.97
2019-02-22T05:51:05.155Z,48.80
2019-02-22T05:53:31.550Z,45.37
2019-02-22T05:55:57.697Z,46.80
2019-02-22T05:58:23.845Z,46.27
2019-02-22T06:00:49.980Z,46.10
2019-02-22T06:03:16.369Z,46.67
2019-02-22T06:05:42.763Z,47.00
2019-02-22T06:08:09.221Z,47.20
2019-02-22T06:10:35.737Z,47.50
2019-02-22T06:13:01.963Z,46.83
2019-02-22T06:15:28.103Z,43.47
2019-02-22T06:17:54.388Z,44.03
2019-02-22T06:20:20.918Z,44.80
2019-02-22T06:22:47.068Z,47.90
2019-02-22T06:25:13.212Z,44.53
2019-02-22T06:27:39.364Z,44.70
2019-02-22T06:30:08.118Z,44.97
2019-02-22T06:32:34.511Z,46.43
2019-02-22T06:35:00.659Z,45.30
2019-02-22T06:37:26.808Z,55.92
2019-02-22T06:39:52.963Z,46.93
2019-02-22T06:42:19.108Z,46.80
2019-02-22T06:44:45.271Z,46.47
2019-02-22T06:47:11.422Z,44.67
2019-02-22T06:49:37.583Z,43.53
2019-02-22T06:52:03.735Z,44.17
2019-02-22T06:54:32.075Z,46.53
2019-02-22T06:56:58.222Z,43.43
2019-02-22T06:59:24.383Z,45.20
2019-02-22T07:01:50.526Z,44.57
2019-02-22T07:04:17.012Z,43.27
2019-02-22T07:06:43.163Z,44.50
2019-02-22T07:09:09.311Z,43.60
2019-02-22T07:11:43.368Z,44.30
2019-02-22T07:14:09.522Z,43.17
2019-02-22T07:16:35.683Z,42.80
2019-02-22T07:19:01.840Z,44.87
2019-02-22T07:21:38.858Z,44.00
2019-02-22T07:23:56.288Z,43.23
2019-02-22T07:26:22.431Z,44.73
2019-02-22T07:28:48.597Z,44.20
2019-02-22T07:31:14.743Z,45.83
2019-02-22T07:33:40.894Z,44.23
2019-02-22T07:36:07.069Z,43.73
2019-02-22T07:38:33.211Z,43.20
2019-02-22T07:40:59.587Z,46.47
2019-02-22T07:43:25.730Z,44.80
2019-02-22T07:45:51.882Z,44.77
2019-02-22T07:48:18.031Z,41.40
2019-02-22T07:50:44.189Z,43.57
2019-02-22T07:53:10.326Z,42.37
2019-02-22T07:55:36.479Z,42.50
2019-02-22T07:58:02.628Z,41.97
2019-02-22T08:00:28.783Z,42.30
2019-02-22T08:02:54.927Z,43.17
2019-02-22T08:05:21.095Z,41.00
2019-02-22T08:07:47.243Z,38.40
2019-02-22T08:10:13.430Z,41.37
2019-02-22T08:12:39.583Z,39.57
2019-02-22T08:15:08.286Z,40.03
2019-02-22T08:17:34.770Z,40.87
2019-02-22T08:20:01.270Z,42.07
2019-02-22T08:22:27.619Z,43.70
2019-02-22T08:24:53.815Z,42.47
2019-02-22T08:27:19.947Z,43.90
2019-02-22T08:29:46.106Z,45.77
2019-02-22T08:32:12.566Z,43.47
2019-02-22T08:34:38.736Z,41.20
2019-02-22T08:37:05.000Z,41.37
2019-02-22T08:39:31.188Z,39.90
2019-02-22T08:41:57.636Z,39.57
2019-02-22T08:44:23.780Z,38.37
2019-02-22T08:46:50.187Z,39.43
2019-02-22T08:49:16.323Z,37.97
2019-02-22T08:51:42.476Z,38.20
2019-02-22T08:54:08.621Z,39.57
2019-02-22T08:56:34.800Z,42.23
2019-02-22T08:59:01.328Z,41.77
2019-02-22T09:01:27.494Z,40.47
2019-02-22T09:03:53.698Z,41.30
2019-02-22T09:06:19.868Z,43.80
2019-02-22T09:08:46.344Z,41.07
2019-02-22T09:11:12.773Z,41.87
2019-02-22T09:13:43.629Z,43.77
2019-02-22T09:16:07.280Z,44.43
2019-02-22T09:18:34.530Z,41.90
2019-02-22T09:21:00.739Z,42.80
2019-02-22T09:23:26.905Z,42.13
2019-02-22T09:25:53.158Z,41.30
2019-02-22T09:28:19.561Z,41.87
2019-02-22T09:30:45.815Z,40.37
2019-02-22T09:33:11.965Z,40.17
2019-02-22T09:35:38.477Z,41.87
2019-02-22T09:38:05.329Z,39.33
2019-02-22T09:40:31.477Z,38.53
2019-02-22T09:42:57.623Z,41.67
2019-02-22T09:45:24.590Z,44.93
2019-02-22T09:47:51.069Z,45.70
2019-02-22T09:50:17.244Z,45.43
2019-02-22T09:52:43.410Z,46.17
2019-02-22T09:55:11.264Z,50.60
2019-02-22T09:57:37.670Z,50.03
2019-02-22T10:00:10.491Z,47.33
2019-02-22T10:02:36.659Z,47.27
2019-02-22T10:05:05.022Z,48.83
2019-02-22T10:07:31.198Z,46.27
2019-02-22T10:09:58.347Z,44.83
2019-02-22T10:12:24.537Z,43.63
2019-02-22T10:14:50.690Z,42.50
2019-02-22T10:17:16.851Z,40.87
2019-02-22T10:19:43.023Z,44.57
2019-02-22T10:22:09.282Z,40.30
2019-02-22T10:24:35.431Z,40.30
2019-02-22T10:27:01.936Z,40.13
2019-02-22T10:29:29.281Z,40.33
2019-02-22T10:31:55.440Z,36.93
2019-02-22T10:34:21.577Z,41.63
2019-02-22T10:36:48.086Z,41.53
2019-02-22T10:39:14.296Z,39.73
2019-02-22T10:41:40.438Z,40.17
2019-02-22T10:44:17.072Z,39.97
2019-02-22T10:46:34.871Z,39.93
2019-02-22T10:49:01.018Z,40.97
2019-02-22T10:51:27.172Z,39.80
2019-02-22T10:53:53.623Z,41.07
2019-02-22T10:56:20.014Z,39.47
2019-02-22T10:58:46.147Z,41.43
2019-02-22T11:01:12.314Z,42.57
2019-02-22T11:03:38.467Z,42.70
2019-02-22T11:06:04.636Z,43.87
2019-02-22T11:08:30.801Z,43.17
2019-02-22T11:10:56.959Z,46.27
2019-02-22T11:13:23.112Z,45.17
2019-02-22T11:15:50.006Z,44.97
2019-02-22T11:18:16.140Z,43.17
2019-02-22T11:20:42.296Z,44.47
2019-02-22T11:23:08.778Z,43.53
2019-02-22T11:25:34.939Z,42.80
2019-02-22T11:28:02.088Z,42.53
2019-02-22T11:30:28.253Z,42.77
2019-02-22T11:32:54.412Z,40.63
2019-02-22T11:35:20.567Z,41.47
2019-02-22T11:37:47.698Z,37.73
2019-02-22T11:40:13.879Z,37.90
2019-02-22T11:42:40.357Z,39.57
2019-02-22T11:45:08.204Z,37.70
2019-02-22T11:47:34.347Z,37.87
2019-02-22T11:50:00.500Z,37.57
2019-02-22T11:52:26.647Z,36.20
2019-02-22T11:54:52.796Z,31.63
2019-02-22T11:57:20.264Z,33.97
2019-02-22T11:59:46.504Z,29.07
2019-02-22T12:02:12.671Z,29.00
2019-02-22T12:04:38.832Z,27.17
2019-02-22T12:07:05.019Z,27.33
2019-02-22T12:09:31.170Z,27.83
2019-02-22T12:11:57.339Z,26.53
2019-02-22T12:14:23.506Z,23.07
2019-02-22T12:16:49.675Z,22.27
2019-02-22T12:19:16.130Z,22.23
2019-02-22T12:21:42.311Z,21.57
2019-02-22T12:24:08.493Z,19.30
2019-02-22T12:26:34.639Z,18.93
2019-02-22T12:29:00.791Z,25.13
2019-02-22T12:31:27.022Z,15.90
2019-02-22T12:33:53.289Z,15.53
2019-02-22T12:36:19.838Z,16.37
2019-02-22T12:38:45.989Z,13.50
2019-02-22T12:41:12.139Z,14.17
2019-02-22T12:43:38.317Z,15.63
2019-02-22T12:46:04.477Z,31.97
2019-02-22T12:48:30.886Z,11.13
2019-02-22T12:50:57.071Z,10.03
2019-02-22T12:53:23.235Z,18.63
2019-02-22T12:55:49.388Z,27.63
2019-02-22T12:58:15.546Z,13.57
2019-02-22T13:00:41.700Z,18.10
2019-02-22T13:03:07.855Z,24.20
2019-02-22T13:05:34.002Z,25.90
2019-02-22T13:08:00.167Z,16.90
2019-02-22T13:10:26.324Z,14.57
2019-02-22T13:12:52.747Z,13.23
2019-02-22T13:15:18.913Z,13.70
2019-02-22T13:17:45.067Z,14.03
2019-02-22T13:20:11.233Z,20.63
2019-02-22T13:22:37.383Z,20.37
2019-02-22T13:25:07.178Z,17.57
2019-02-22T13:27:33.351Z,17.70
2019-02-22T13:29:59.538Z,17.33
2019-02-22T13:32:25.683Z,15.93
2019-02-22T13:34:51.915Z,17.00
2019-02-22T13:37:18.070Z,15.77
2019-02-22T13:39:44.247Z,14.40
2019-02-22T13:42:10.402Z,13.40
2019-02-22T13:44:36.570Z,15.93
2019-02-22T13:47:02.730Z,17.33
2019-02-22T13:49:28.877Z,15.53
2019-02-22T13:51:55.401Z,15.60
2019-02-22T13:54:21.597Z,15.77
2019-02-22T13:56:48.184Z,17.40
2019-02-22T13:59:14.403Z,15.00
2019-02-22T14:01:40.563Z,13.33
2019-02-22T14:04:06.739Z,13.37
2019-02-22T14:06:32.884Z,13.43
2019-02-22T14:08:59.048Z,13.83
2019-02-22T14:11:25.238Z,14.10
2019-02-22T14:13:51.394Z,15.03
2019-02-22T14:16:17.627Z,14.07
2019-02-22T14:18:43.787Z,12.87
2019-02-22T14:21:09.943Z,12.50
2019-02-22T14:23:36.093Z,11.83
2019-02-22T14:26:02.579Z,11.83
2019-02-22T14:28:28.723Z,10.97
2019-02-22T14:30:54.877Z,11.47
2019-02-22T14:33:21.025Z,10.10
2019-02-22T14:35:47.190Z,11.07
2019-02-22T14:38:13.632Z,11.20
2019-02-22T14:40:39.833Z,11.50
2019-02-22T14:43:16.198Z,11.87
2019-02-22T14:45:34.040Z,13.50
2019-02-22T14:48:00.223Z,14.10
2019-02-22T14:50:26.699Z,14.20
2019-02-22T14:52:52.859Z,14.43
2019-02-22T14:55:18.996Z,14.83
2019-02-22T14:57:45.493Z,14.73
2019-02-22T15:00:14.899Z,13.60
2019-02-22T15:02:41.288Z,13.67
2019-02-22T15:05:09.229Z,14.77
2019-02-22T15:07:35.506Z,14.40
2019-02-22T15:10:02.151Z,13.60
2019-02-22T15:12:28.290Z,14.10
2019-02-22T15:14:54.707Z,14.47
2019-02-22T15:17:23.004Z,16.53
2019-02-22T15:19:49.151Z,19.37
2019-02-22T15:22:15.292Z,18.63
2019-02-22T15:24:41.437Z,20.13
2019-02-22T15:27:07.585Z,18.97
2019-02-22T15:29:33.726Z,20.33
2019-02-22T15:32:00.887Z,21.03
2019-02-22T15:34:27.045Z,21.03
2019-02-22T15:36:54.220Z,20.90
2019-02-22T15:39:20.452Z,19.60
2019-02-22T15:41:47.096Z,18.80
2019-02-22T15:44:13.286Z,19.47
2019-02-22T15:46:39.448Z,19.10
2019-02-22T15:49:05.945Z,19.27
2019-02-22T15:51:32.160Z,17.00
2019-02-22T15:53:58.639Z,18.60
2019-02-22T15:56:26.050Z,17.43
2019-02-22T15:58:52.211Z,17.70
2019-02-22T16:01:18.356Z,16.50
2019-02-22T16:04:01.383Z,16.77
2019-02-22T16:06:27.528Z,16.13
2019-02-22T16:08:53.670Z,15.63
2019-02-22T16:11:19.916Z,16.60
2019-02-22T16:13:46.065Z,16.83
2019-02-22T16:16:22.727Z,14.33
2019-02-22T16:18:40.597Z,13.53
2019-02-22T16:21:06.755Z,13.00
2019-02-22T16:23:33.144Z,14.57
2019-02-22T16:25:59.294Z,15.10
2019-02-22T16:28:25.479Z,14.73
2019-02-22T16:30:51.638Z,14.07
2019-02-22T16:33:18.886Z,14.90
2019-02-22T16:35:45.344Z,12.33
2019-02-22T16:38:11.500Z,14.37
2019-02-22T16:40:37.639Z,14.77
2019-02-22T16:43:04.164Z,13.93
2019-02-22T16:45:30.305Z,13.70
2019-02-22T16:47:56.456Z,14.40
2019-02-22T16:50:22.613Z,13.97
2019-02-22T16:52:48.773Z,14.03
2019-02-22T16:55:15.491Z,13.80
2019-02-22T16:57:41.643Z,14.07
2019-02-22T17:00:10.247Z,14.23
2019-02-22T17:02:36.790Z,14.67
2019-02-22T17:05:05.063Z,14.20
2019-02-22T17:07:31.618Z,14.60
2019-02-22T17:09:57.797Z,14.87
2019-02-22T17:12:23.951Z,15.80
2019-02-22T17:14:50.118Z,16.17
2019-02-22T17:17:16.486Z,14.97
2019-02-22T17:19:42.656Z,16.27
2019-02-22T17:22:09.730Z,16.07
2019-02-22T17:24:36.377Z,17.80
2019-02-22T17:27:02.527Z,16.13
2019-02-22T17:29:28.687Z,16.77
2019-02-22T17:31:54.830Z,15.77
2019-02-22T17:34:20.987Z,15.40
2019-02-22T17:36:47.435Z,16.10
2019-02-22T17:39:13.844Z,15.53
2019-02-22T17:41:42.668Z,15.70
2019-02-22T17:44:08.354Z,14.87
2019-02-22T17:46:35.909Z,15.50
2019-02-22T17:49:02.065Z,15.33
2019-02-22T17:51:28.213Z,15.73
2019-02-22T17:53:54.478Z,15.37
2019-02-22T17:56:20.927Z,15.33
2019-02-22T17:58:47.312Z,16.53
2019-02-22T18:01:13.469Z,16.10
2019-02-22T18:03:39.615Z,15.03
2019-02-22T18:06:06.055Z,15.50
2019-02-22T18:08:32.197Z,15.17
2019-02-22T18:10:58.352Z,15.43
2019-02-22T18:13:24.832Z,16.30
2019-02-22T18:15:50.987Z,15.30
2019-02-22T18:18:17.130Z,16.20
2019-02-22T18:20:43.293Z,15.33
2019-02-22T18:23:09.439Z,16.83
2019-02-22T18:25:35.600Z,15.87
2019-02-22T18:28:01.856Z,16.17
2019-02-22T18:30:28.115Z,17.30
2019-02-22T18:32:54.575Z,16.80
2019-02-22T18:35:20.868Z,18.33
2019-02-22T18:37:47.335Z,17.37
2019-02-22T18:40:17.309Z,17.43
2019-02-22T18:42:43.467Z,18.07
2019-02-22T18:45:09.829Z,17.20
2019-02-22T18:47:35.990Z,18.33
2019-02-22T18:50:06.060Z,17.07
2019-02-22T18:52:32.458Z,16.63
2019-02-22T18:54:58.599Z,18.50
2019-02-22T18:57:24.758Z,16.73
2019-02-22T18:59:50.900Z,16.90
2019-02-22T19:02:17.064Z,15.40
2019-02-22T19:04:43.234Z,15.83
2019-02-22T19:07:09.391Z,14.57
2019-02-22T19:09:35.531Z,15.37
2019-02-22T19:12:01.686Z,15.47
2019-02-22T19:14:28.123Z,14.47
2019-02-22T19:16:55.382Z,15.23
2019-02-22T19:19:21.521Z,15.50
2019-02-22T19:21:48.101Z,13.97
2019-02-22T19:24:14.366Z,14.83
2019-02-22T19:26:40.533Z,15.07
2019-02-22T19:29:06.676Z,14.77
2019-02-22T19:31:32.834Z,14.67
2019-02-22T19:33:59.087Z,13.60
2019-02-22T19:36:25.232Z,12.93
2019-02-22T19:38:51.393Z,14.93
2019-02-22T19:41:17.544Z,14.07
2019-02-22T19:43:43.992Z,14.10
2019-02-22T19:46:10.134Z,14.87
2019-02-22T19:48:36.292Z,14.90
2019-02-22T19:51:33.649Z,15.23
2019-02-22T19:53:59.802Z,18.00
2019-02-22T19:56:25.981Z,17.83
2019-02-22T19:58:52.183Z,19.93
2019-02-22T20:01:18.339Z,20.00
2019-02-22T20:03:44.488Z,22.20
2019-02-22T20:06:10.972Z,23.43
2019-02-22T20:08:37.155Z,23.60
2019-02-22T20:11:04.401Z,24.70
2019-02-22T20:13:30.652Z,22.27
2019-02-22T20:15:56.823Z,23.53
2019-02-22T20:18:22.986Z,25.30
2019-02-22T20:20:49.183Z,24.03
2019-02-22T20:23:15.522Z,23.83
2019-02-22T20:25:41.675Z,25.97
2019-02-22T20:28:08.127Z,24.80
2019-02-22T20:30:35.416Z,24.57
2019-02-22T20:33:01.582Z,24.03
2019-02-22T20:35:28.450Z,25.90
2019-02-22T20:37:54.801Z,25.20
2019-02-22T20:40:21.210Z,25.70
2019-02-22T20:42:47.756Z,24.23
2019-02-22T20:45:14.036Z,26.60
2019-02-22T20:47:40.412Z,25.37
2019-02-22T20:50:10.673Z,26.07
2019-02-22T20:52:36.927Z,26.60
2019-02-22T20:55:05.002Z,27.43
2019-02-22T20:57:31.406Z,26.87
2019-02-22T20:59:57.571Z,26.77
2019-02-22T21:02:23.743Z,27.63
2019-02-22T21:04:50.219Z,27.57
2019-02-22T21:07:16.631Z,27.80
2019-02-22T21:09:42.837Z,27.63
2019-02-22T21:12:09.087Z,27.07
2019-02-22T21:14:35.239Z,25.90
2019-02-22T21:17:01.427Z,25.50
2019-02-22T21:19:27.580Z,26.00
2019-02-22T21:21:53.728Z,26.13
2019-02-22T21:24:19.877Z,25.63
2019-02-22T21:26:46.034Z,26.13
2019-02-22T21:29:12.293Z,26.07
2019-02-22T21:31:38.704Z,25.07
2019-02-22T21:34:05.138Z,24.63
2019-02-22T21:36:31.290Z,23.57
2019-02-22T21:38:57.442Z,24.93
2019-02-22T21:41:23.667Z,24.80
2019-02-22T21:43:50.168Z,26.00
2019-02-22T21:46:16.548Z,26.37
2019-02-22T21:48:43.120Z,24.83
2019-02-22T21:51:09.315Z,25.73
2019-02-22T21:53:35.465Z,24.47
2019-02-22T21:56:01.618Z,23.17
2019-02-22T21:58:27.864Z,23.30
2019-02-22T22:00:54.016Z,23.93
2019-02-22T22:03:20.164Z,24.80
2019-02-22T22:05:46.334Z,24.43
2019-02-22T22:08:13.479Z,24.00
2019-02-22T22:10:39.891Z,23.60
2019-02-22T22:13:06.050Z,23.87
2019-02-22T22:15:32.206Z,24.00
2019-02-22T22:17:58.365Z,24.07
2019-02-22T22:20:24.523Z,23.53
2019-02-22T22:22:50.755Z,21.47
2019-02-22T22:25:16.949Z,21.30
2019-02-22T22:27:43.191Z,21.70
2019-02-22T22:30:13.613Z,23.07
2019-02-22T22:32:39.815Z,22.83
2019-02-22T22:35:08.616Z,25.07
2019-02-22T22:37:35.771Z,23.50
2019-02-22T22:40:02.332Z,23.87
2019-02-22T22:42:28.611Z,23.33
2019-02-22T22:44:54.749Z,22.73
2019-02-22T22:47:20.892Z,22.73
2019-02-22T22:49:47.034Z,22.77
2019-02-22T22:52:13.199Z,21.67
2019-02-22T22:54:39.366Z,20.33
2019-02-22T22:57:05.511Z,22.00
2019-02-22T22:59:31.695Z,22.53
2019-02-22T23:01:58.137Z,22.63
2019-02-22T23:04:24.488Z,20.87
2019-02-22T23:06:50.652Z,22.37
2019-02-22T23:09:18.404Z,21.80
2019-02-22T23:11:44.791Z,21.07
2019-02-22T23:14:10.948Z,21.53
2019-02-22T23:16:37.099Z,20.77
2019-02-22T23:19:04.250Z,20.30
2019-02-22T23:21:30.394Z,21.73
2019-02-22T23:23:56.794Z,19.47
2019-02-22T23:26:22.930Z,21.57
2019-02-22T23:28:49.070Z,22.00
2019-02-22T23:31:15.227Z,19.93
2019-02-22T23:33:42.709Z,21.53
2019-02-22T23:36:08.974Z,23.07
2019-02-22T23:38:35.131Z,21.50
2019-02-22T23:41:01.273Z,23.70
2019-02-22T23:43:27.411Z,22.37
2019-02-22T23:45:53.579Z,22.67
2019-02-22T23:48:19.729Z,22.73
2019-02-22T23:50:45.995Z,22.60
2019-02-22T23:53:12.133Z,22.27
2019-02-22T23:55:38.282Z,20.87
2019-02-22T23:58:04.419Z,22.50
